sensor_id;sensor_type;location;lat;lon;timestamp;P1;durP1;ratioP1;P2;durP2;ratioP2
71562;SDS011;59391;52.504;13.438;2023-09-30T00:02:11;5.85;;;2.28;;
71562;SDS011;59391;52.504;13.438;2023-09-30T00:04:37;6.60;;;2.47;;
71562;SDS011;59391;52.504;13.438;2023-09-30T00:07:04;5.32;;;2.45;;
71562;SDS011;59391;52.504;13.438;2023-09-30T00:09:30;5.72;;;2.38;;
71562;SDS011;59391;52.504;13.438;2023-09-30T00:11:55;5.07;;;2.10;;
71562;SDS011;59391;52.504;13.438;2023-09-30T00:14:21;6.88;;;2.40;;
71562;SDS011;59391;52.504;13.438;2023-09-30T00:16:47;5.53;;;2.20;;
71562;SDS011;59391;52.504;13.438;2023-09-30T00:19:12;9.23;;;2.47;;
71562;SDS011;59391;52.504;13.438;2023-09-30T00:21:38;9.00;;;2.42;;
71562;SDS011;59391;52.504;13.438;2023-09-30T00:24:04;6.30;;;2.22;;
71562;SDS011;59391;52.504;13.438;2023-09-30T00:26:30;7.53;;;2.70;;
71562;SDS011;59391;52.504;13.438;2023-09-30T00:28:56;6.00;;;2.58;;
71562;SDS011;59391;52.504;13.438;2023-09-30T00:31:21;6.47;;;2.70;;
71562;SDS011;59391;52.504;13.438;2023-09-30T00:33:47;7.30;;;2.88;;
71562;SDS011;59391;52.504;13.438;2023-09-30T00:36:13;6.27;;;2.43;;
71562;SDS011;59391;52.504;13.438;2023-09-30T00:38:39;7.05;;;2.60;;
71562;SDS011;59391;52.504;13.438;2023-09-30T00:41:07;9.40;;;2.97;;
71562;SDS011;59391;52.504;13.438;2023-09-30T00:43:33;7.87;;;3.10;;
71562;SDS011;59391;52.504;13.438;2023-09-30T00:46:04;6.75;;;2.90;;
71562;SDS011;59391;52.504;13.438;2023-09-30T00:48:49;9.30;;;3.10;;
71562;SDS011;59391;52.504;13.438;2023-09-30T00:51:15;7.20;;;2.50;;
71562;SDS011;59391;52.504;13.438;2023-09-30T00:53:41;7.97;;;2.53;;
71562;SDS011;59391;52.504;13.438;2023-09-30T00:56:07;8.10;;;3.08;;
71562;SDS011;59391;52.504;13.438;2023-09-30T00:58:33;8.82;;;2.53;;
71562;SDS011;59391;52.504;13.438;2023-09-30T01:01:00;11.18;;;2.80;;
71562;SDS011;59391;52.504;13.438;2023-09-30T01:03:26;7.45;;;2.70;;
71562;SDS011;59391;52.504;13.438;2023-09-30T01:05:52;9.40;;;2.60;;
71562;SDS011;59391;52.504;13.438;2023-09-30T01:08:19;9.45;;;2.90;;
71562;SDS011;59391;52.504;13.438;2023-09-30T01:10:45;7.05;;;2.70;;
71562;SDS011;59391;52.504;13.438;2023-09-30T01:13:11;8.75;;;2.72;;
71562;SDS011;59391;52.504;13.438;2023-09-30T01:15:37;12.83;;;3.90;;
71562;SDS011;59391;52.504;13.438;2023-09-30T01:18:03;8.55;;;3.70;;
71562;SDS011;59391;52.504;13.438;2023-09-30T01:20:29;9.23;;;3.40;;
71562;SDS011;59391;52.504;13.438;2023-09-30T01:22:56;6.65;;;2.88;;
71562;SDS011;59391;52.504;13.438;2023-09-30T01:25:22;6.78;;;2.53;;
71562;SDS011;59391;52.504;13.438;2023-09-30T01:27:49;6.97;;;2.90;;
71562;SDS011;59391;52.504;13.438;2023-09-30T01:30:16;7.80;;;3.35;;
71562;SDS011;59391;52.504;13.438;2023-09-30T01:32:43;9.43;;;3.25;;
71562;SDS011;59391;52.504;13.438;2023-09-30T01:35:09;6.97;;;3.00;;
71562;SDS011;59391;52.504;13.438;2023-09-30T01:37:35;6.38;;;2.83;;
71562;SDS011;59391;52.504;13.438;2023-09-30T01:40:01;7.30;;;2.90;;
71562;SDS011;59391;52.504;13.438;2023-09-30T01:42:33;9.02;;;2.67;;
71562;SDS011;59391;52.504;13.438;2023-09-30T01:44:58;10.73;;;3.17;;
71562;SDS011;59391;52.504;13.438;2023-09-30T01:47:24;10.23;;;3.17;;
71562;SDS011;59391;52.504;13.438;2023-09-30T01:49:50;7.70;;;3.20;;
71562;SDS011;59391;52.504;13.438;2023-09-30T01:52:15;8.87;;;3.20;;
71562;SDS011;59391;52.504;13.438;2023-09-30T01:54:41;10.80;;;2.90;;
71562;SDS011;59391;52.504;13.438;2023-09-30T01:57:06;8.63;;;3.90;;
71562;SDS011;59391;52.504;13.438;2023-09-30T01:59:32;9.48;;;3.40;;
71562;SDS011;59391;52.504;13.438;2023-09-30T02:01:58;10.07;;;3.53;;
71562;SDS011;59391;52.504;13.438;2023-09-30T02:04:23;11.82;;;3.33;;
71562;SDS011;59391;52.504;13.438;2023-09-30T02:06:49;10.80;;;3.23;;
71562;SDS011;59391;52.504;13.438;2023-09-30T02:09:15;9.33;;;3.53;;
71562;SDS011;59391;52.504;13.438;2023-09-30T02:11:41;11.48;;;3.30;;
71562;SDS011;59391;52.504;13.438;2023-09-30T02:14:06;9.73;;;3.30;;
71562;SDS011;59391;52.504;13.438;2023-09-30T02:16:32;12.60;;;3.30;;
71562;SDS011;59391;52.504;13.438;2023-09-30T02:18:58;10.10;;;3.60;;
71562;SDS011;59391;52.504;13.438;2023-09-30T02:21:24;10.60;;;3.50;;
71562;SDS011;59391;52.504;13.438;2023-09-30T02:23:49;11.10;;;3.27;;
71562;SDS011;59391;52.504;13.438;2023-09-30T02:26:19;9.65;;;3.20;;
71562;SDS011;59391;52.504;13.438;2023-09-30T02:28:46;10.45;;;3.20;;
71562;SDS011;59391;52.504;13.438;2023-09-30T02:31:12;11.15;;;3.60;;
71562;SDS011;59391;52.504;13.438;2023-09-30T02:33:38;12.30;;;3.57;;
71562;SDS011;59391;52.504;13.438;2023-09-30T02:36:07;8.35;;;3.03;;
71562;SDS011;59391;52.504;13.438;2023-09-30T02:38:33;11.55;;;3.38;;
71562;SDS011;59391;52.504;13.438;2023-09-30T02:41:02;9.73;;;3.75;;
71562;SDS011;59391;52.504;13.438;2023-09-30T02:43:28;10.57;;;3.67;;
71562;SDS011;59391;52.504;13.438;2023-09-30T02:45:54;9.38;;;3.10;;
71562;SDS011;59391;52.504;13.438;2023-09-30T02:48:19;12.68;;;4.05;;
71562;SDS011;59391;52.504;13.438;2023-09-30T02:50:45;10.02;;;3.53;;
71562;SDS011;59391;52.504;13.438;2023-09-30T02:53:11;10.77;;;3.67;;
71562;SDS011;59391;52.504;13.438;2023-09-30T02:55:38;8.25;;;3.42;;
71562;SDS011;59391;52.504;13.438;2023-09-30T02:58:05;7.70;;;3.17;;
71562;SDS011;59391;52.504;13.438;2023-09-30T03:00:33;11.57;;;3.40;;
71562;SDS011;59391;52.504;13.438;2023-09-30T03:03:00;10.90;;;3.40;;
71562;SDS011;59391;52.504;13.438;2023-09-30T03:05:27;9.73;;;3.40;;
71562;SDS011;59391;52.504;13.438;2023-09-30T03:07:55;13.98;;;3.80;;
71562;SDS011;59391;52.504;13.438;2023-09-30T03:10:21;10.88;;;3.67;;
71562;SDS011;59391;52.504;13.438;2023-09-30T03:12:51;10.05;;;3.72;;
71562;SDS011;59391;52.504;13.438;2023-09-30T03:15:21;11.80;;;3.50;;
71562;SDS011;59391;52.504;13.438;2023-09-30T03:17:49;10.40;;;3.90;;
71562;SDS011;59391;52.504;13.438;2023-09-30T03:20:15;10.95;;;4.05;;
71562;SDS011;59391;52.504;13.438;2023-09-30T03:22:44;11.80;;;3.80;;
71562;SDS011;59391;52.504;13.438;2023-09-30T03:25:14;11.65;;;3.38;;
71562;SDS011;59391;52.504;13.438;2023-09-30T03:27:42;16.13;;;7.85;;
71562;SDS011;59391;52.504;13.438;2023-09-30T03:30:09;14.85;;;3.97;;
71562;SDS011;59391;52.504;13.438;2023-09-30T03:32:36;11.73;;;4.18;;
71562;SDS011;59391;52.504;13.438;2023-09-30T03:35:04;9.57;;;3.53;;
71562;SDS011;59391;52.504;13.438;2023-09-30T03:37:40;9.50;;;4.00;;
71562;SDS011;59391;52.504;13.438;2023-09-30T03:40:06;12.35;;;3.83;;
71562;SDS011;59391;52.504;13.438;2023-09-30T03:42:39;10.30;;;3.90;;
71562;SDS011;59391;52.504;13.438;2023-09-30T03:45:08;11.48;;;4.00;;
71562;SDS011;59391;52.504;13.438;2023-09-30T03:47:35;8.87;;;3.60;;
71562;SDS011;59391;52.504;13.438;2023-09-30T03:50:03;10.77;;;3.90;;
71562;SDS011;59391;52.504;13.438;2023-09-30T03:52:30;8.73;;;3.88;;
71562;SDS011;59391;52.504;13.438;2023-09-30T03:54:59;10.35;;;3.97;;
71562;SDS011;59391;52.504;13.438;2023-09-30T03:57:30;10.93;;;3.55;;
71562;SDS011;59391;52.504;13.438;2023-09-30T04:00:02;13.63;;;3.60;;
71562;SDS011;59391;52.504;13.438;2023-09-30T04:02:31;11.77;;;3.90;;
71562;SDS011;59391;52.504;13.438;2023-09-30T04:04:57;9.60;;;3.83;;
71562;SDS011;59391;52.504;13.438;2023-09-30T04:07:24;12.93;;;4.07;;
71562;SDS011;59391;52.504;13.438;2023-09-30T04:09:52;13.02;;;4.07;;
71562;SDS011;59391;52.504;13.438;2023-09-30T04:12:21;10.37;;;3.30;;
71562;SDS011;59391;52.504;13.438;2023-09-30T04:14:50;10.85;;;4.00;;
71562;SDS011;59391;52.504;13.438;2023-09-30T04:17:17;11.65;;;3.90;;
71562;SDS011;59391;52.504;13.438;2023-09-30T04:19:42;11.83;;;3.87;;
71562;SDS011;59391;52.504;13.438;2023-09-30T04:22:08;11.88;;;3.90;;
71562;SDS011;59391;52.504;13.438;2023-09-30T04:24:34;9.40;;;3.87;;
71562;SDS011;59391;52.504;13.438;2023-09-30T04:26:59;9.57;;;4.15;;
71562;SDS011;59391;52.504;13.438;2023-09-30T04:29:28;10.88;;;3.80;;
71562;SDS011;59391;52.504;13.438;2023-09-30T04:31:54;9.80;;;4.07;;
71562;SDS011;59391;52.504;13.438;2023-09-30T04:34:23;10.90;;;4.10;;
71562;SDS011;59391;52.504;13.438;2023-09-30T04:36:49;10.52;;;4.25;;
71562;SDS011;59391;52.504;13.438;2023-09-30T04:39:15;14.27;;;3.97;;
71562;SDS011;59391;52.504;13.438;2023-09-30T04:41:41;9.77;;;3.42;;
71562;SDS011;59391;52.504;13.438;2023-09-30T04:44:07;11.43;;;4.03;;
71562;SDS011;59391;52.504;13.438;2023-09-30T04:46:36;11.10;;;3.92;;
71562;SDS011;59391;52.504;13.438;2023-09-30T04:49:06;12.85;;;4.15;;
71562;SDS011;59391;52.504;13.438;2023-09-30T04:51:33;12.48;;;3.90;;
71562;SDS011;59391;52.504;13.438;2023-09-30T04:53:59;10.80;;;4.00;;
71562;SDS011;59391;52.504;13.438;2023-09-30T04:56:25;8.82;;;3.78;;
71562;SDS011;59391;52.504;13.438;2023-09-30T04:58:50;11.80;;;3.92;;
71562;SDS011;59391;52.504;13.438;2023-09-30T05:01:16;11.20;;;3.67;;
71562;SDS011;59391;52.504;13.438;2023-09-30T05:03:43;10.02;;;3.70;;
71562;SDS011;59391;52.504;13.438;2023-09-30T05:06:14;10.32;;;4.03;;
71562;SDS011;59391;52.504;13.438;2023-09-30T05:08:40;10.87;;;3.73;;
71562;SDS011;59391;52.504;13.438;2023-09-30T05:11:06;11.70;;;3.85;;
71562;SDS011;59391;52.504;13.438;2023-09-30T05:13:32;10.63;;;3.67;;
71562;SDS011;59391;52.504;13.438;2023-09-30T05:16:01;10.43;;;3.85;;
71562;SDS011;59391;52.504;13.438;2023-09-30T05:18:28;12.10;;;4.27;;
71562;SDS011;59391;52.504;13.438;2023-09-30T05:20:54;14.25;;;4.80;;
71562;SDS011;59391;52.504;13.438;2023-09-30T05:23:20;10.95;;;4.03;;
71562;SDS011;59391;52.504;13.438;2023-09-30T05:25:46;13.50;;;4.77;;
71562;SDS011;59391;52.504;13.438;2023-09-30T05:28:11;9.45;;;4.05;;
71562;SDS011;59391;52.504;13.438;2023-09-30T05:30:38;12.68;;;4.22;;
71562;SDS011;59391;52.504;13.438;2023-09-30T05:33:05;14.85;;;4.30;;
71562;SDS011;59391;52.504;13.438;2023-09-30T05:35:32;15.43;;;4.40;;
71562;SDS011;59391;52.504;13.438;2023-09-30T05:37:58;11.55;;;3.75;;
71562;SDS011;59391;52.504;13.438;2023-09-30T05:40:24;11.60;;;4.10;;
71562;SDS011;59391;52.504;13.438;2023-09-30T05:42:56;8.93;;;3.83;;
71562;SDS011;59391;52.504;13.438;2023-09-30T05:45:23;10.68;;;3.90;;
71562;SDS011;59391;52.504;13.438;2023-09-30T05:47:49;13.25;;;4.05;;
71562;SDS011;59391;52.504;13.438;2023-09-30T05:50:17;11.00;;;3.92;;
71562;SDS011;59391;52.504;13.438;2023-09-30T05:52:48;11.47;;;4.20;;
71562;SDS011;59391;52.504;13.438;2023-09-30T05:55:15;11.30;;;3.88;;
71562;SDS011;59391;52.504;13.438;2023-09-30T05:57:46;12.13;;;3.90;;
71562;SDS011;59391;52.504;13.438;2023-09-30T06:00:19;8.98;;;3.65;;
71562;SDS011;59391;52.504;13.438;2023-09-30T06:02:49;10.65;;;4.47;;
71562;SDS011;59391;52.504;13.438;2023-09-30T06:05:16;12.27;;;4.20;;
71562;SDS011;59391;52.504;13.438;2023-09-30T06:07:43;9.73;;;3.63;;
71562;SDS011;59391;52.504;13.438;2023-09-30T06:10:12;9.55;;;3.83;;
71562;SDS011;59391;52.504;13.438;2023-09-30T06:12:40;10.90;;;4.13;;
71562;SDS011;59391;52.504;13.438;2023-09-30T06:15:06;9.00;;;4.07;;
71562;SDS011;59391;52.504;13.438;2023-09-30T06:17:33;12.65;;;4.22;;
71562;SDS011;59391;52.504;13.438;2023-09-30T06:19:59;9.55;;;3.95;;
71562;SDS011;59391;52.504;13.438;2023-09-30T06:22:34;11.07;;;4.38;;
71562;SDS011;59391;52.504;13.438;2023-09-30T06:25:00;13.60;;;4.13;;
71562;SDS011;59391;52.504;13.438;2023-09-30T06:27:28;12.25;;;3.92;;
71562;SDS011;59391;52.504;13.438;2023-09-30T06:29:54;10.68;;;4.20;;
71562;SDS011;59391;52.504;13.438;2023-09-30T06:32:20;11.90;;;4.37;;
71562;SDS011;59391;52.504;13.438;2023-09-30T06:34:46;13.52;;;3.88;;
71562;SDS011;59391;52.504;13.438;2023-09-30T06:37:11;12.10;;;3.70;;
71562;SDS011;59391;52.504;13.438;2023-09-30T06:39:37;10.35;;;3.95;;
71562;SDS011;59391;52.504;13.438;2023-09-30T06:42:03;11.73;;;4.40;;
71562;SDS011;59391;52.504;13.438;2023-09-30T06:44:28;12.93;;;4.03;;
71562;SDS011;59391;52.504;13.438;2023-09-30T06:46:56;14.40;;;3.70;;
71562;SDS011;59391;52.504;13.438;2023-09-30T06:49:21;11.40;;;4.03;;
71562;SDS011;59391;52.504;13.438;2023-09-30T06:51:47;12.50;;;4.63;;
71562;SDS011;59391;52.504;13.438;2023-09-30T06:54:12;9.40;;;3.90;;
71562;SDS011;59391;52.504;13.438;2023-09-30T06:56:38;12.37;;;3.90;;
71562;SDS011;59391;52.504;13.438;2023-09-30T06:59:04;10.73;;;3.97;;
71562;SDS011;59391;52.504;13.438;2023-09-30T07:01:31;11.93;;;3.83;;
71562;SDS011;59391;52.504;13.438;2023-09-30T07:03:57;9.65;;;4.10;;
71562;SDS011;59391;52.504;13.438;2023-09-30T07:06:25;11.60;;;3.80;;
71562;SDS011;59391;52.504;13.438;2023-09-30T07:08:52;10.80;;;4.10;;
71562;SDS011;59391;52.504;13.438;2023-09-30T07:11:26;11.43;;;3.40;;
71562;SDS011;59391;52.504;13.438;2023-09-30T07:13:54;12.00;;;4.32;;
71562;SDS011;59391;52.504;13.438;2023-09-30T07:16:21;12.38;;;4.35;;
71562;SDS011;59391;52.504;13.438;2023-09-30T07:18:47;11.73;;;3.83;;
71562;SDS011;59391;52.504;13.438;2023-09-30T07:21:13;7.43;;;3.50;;
71562;SDS011;59391;52.504;13.438;2023-09-30T07:23:38;10.13;;;4.38;;
71562;SDS011;59391;52.504;13.438;2023-09-30T07:26:04;11.60;;;4.00;;
71562;SDS011;59391;52.504;13.438;2023-09-30T07:28:30;11.43;;;3.97;;
71562;SDS011;59391;52.504;13.438;2023-09-30T07:30:56;10.73;;;3.70;;
71562;SDS011;59391;52.504;13.438;2023-09-30T07:33:22;9.63;;;3.95;;
71562;SDS011;59391;52.504;13.438;2023-09-30T07:35:47;10.10;;;3.70;;
71562;SDS011;59391;52.504;13.438;2023-09-30T07:38:14;11.95;;;3.75;;
71562;SDS011;59391;52.504;13.438;2023-09-30T07:40:40;8.00;;;3.47;;
71562;SDS011;59391;52.504;13.438;2023-09-30T07:43:06;12.03;;;4.10;;
71562;SDS011;59391;52.504;13.438;2023-09-30T07:45:32;9.80;;;3.78;;
71562;SDS011;59391;52.504;13.438;2023-09-30T07:47:58;10.17;;;4.00;;
71562;SDS011;59391;52.504;13.438;2023-09-30T07:50:23;10.07;;;3.85;;
71562;SDS011;59391;52.504;13.438;2023-09-30T07:52:49;11.07;;;3.63;;
71562;SDS011;59391;52.504;13.438;2023-09-30T07:55:15;11.63;;;3.90;;
71562;SDS011;59391;52.504;13.438;2023-09-30T07:57:41;9.73;;;3.63;;
71562;SDS011;59391;52.504;13.438;2023-09-30T08:00:08;12.07;;;3.75;;
71562;SDS011;59391;52.504;13.438;2023-09-30T08:02:39;11.13;;;3.83;;
71562;SDS011;59391;52.504;13.438;2023-09-30T08:05:07;12.70;;;4.00;;
71562;SDS011;59391;52.504;13.438;2023-09-30T08:07:33;11.55;;;3.88;;
71562;SDS011;59391;52.504;13.438;2023-09-30T08:09:59;10.30;;;4.10;;
71562;SDS011;59391;52.504;13.438;2023-09-30T08:12:25;13.17;;;4.03;;
71562;SDS011;59391;52.504;13.438;2023-09-30T08:14:52;10.63;;;3.97;;
71562;SDS011;59391;52.504;13.438;2023-09-30T08:17:17;11.07;;;4.03;;
71562;SDS011;59391;52.504;13.438;2023-09-30T08:19:46;9.67;;;3.77;;
71562;SDS011;59391;52.504;13.438;2023-09-30T08:22:13;10.80;;;3.75;;
71562;SDS011;59391;52.504;13.438;2023-09-30T08:24:39;10.50;;;4.07;;
71562;SDS011;59391;52.504;13.438;2023-09-30T08:27:05;13.53;;;3.93;;
71562;SDS011;59391;52.504;13.438;2023-09-30T08:29:33;12.43;;;4.05;;
71562;SDS011;59391;52.504;13.438;2023-09-30T08:32:02;12.00;;;3.78;;
71562;SDS011;59391;52.504;13.438;2023-09-30T08:34:28;11.43;;;3.67;;
71562;SDS011;59391;52.504;13.438;2023-09-30T08:36:54;8.18;;;3.50;;
71562;SDS011;59391;52.504;13.438;2023-09-30T08:39:20;11.80;;;3.47;;
71562;SDS011;59391;52.504;13.438;2023-09-30T08:41:46;10.53;;;3.70;;
71562;SDS011;59391;52.504;13.438;2023-09-30T08:44:12;10.85;;;3.35;;
71562;SDS011;59391;52.504;13.438;2023-09-30T08:46:37;10.93;;;3.53;;
71562;SDS011;59391;52.504;13.438;2023-09-30T08:49:05;12.98;;;3.88;;
71562;SDS011;59391;52.504;13.438;2023-09-30T08:51:32;12.27;;;4.03;;
71562;SDS011;59391;52.504;13.438;2023-09-30T08:53:58;10.45;;;3.45;;
71562;SDS011;59391;52.504;13.438;2023-09-30T08:56:27;12.05;;;4.20;;
71562;SDS011;59391;52.504;13.438;2023-09-30T08:58:58;14.07;;;3.80;;
71562;SDS011;59391;52.504;13.438;2023-09-30T09:01:27;11.60;;;3.30;;
71562;SDS011;59391;52.504;13.438;2023-09-30T09:03:55;10.63;;;3.58;;
71562;SDS011;59391;52.504;13.438;2023-09-30T09:06:22;10.90;;;3.45;;
71562;SDS011;59391;52.504;13.438;2023-09-30T09:08:50;9.47;;;3.50;;
71562;SDS011;59391;52.504;13.438;2023-09-30T09:11:17;13.10;;;3.80;;
71562;SDS011;59391;52.504;13.438;2023-09-30T09:13:50;9.50;;;3.53;;
71562;SDS011;59391;52.504;13.438;2023-09-30T09:16:21;10.95;;;3.33;;
71562;SDS011;59391;52.504;13.438;2023-09-30T09:18:48;10.55;;;3.22;;
71562;SDS011;59391;52.504;13.438;2023-09-30T09:21:15;9.07;;;3.10;;
71562;SDS011;59391;52.504;13.438;2023-09-30T09:23:48;10.35;;;3.33;;
71562;SDS011;59391;52.504;13.438;2023-09-30T09:26:28;11.55;;;3.28;;
71562;SDS011;59391;52.504;13.438;2023-09-30T09:28:57;10.23;;;3.30;;
71562;SDS011;59391;52.504;13.438;2023-09-30T09:31:26;11.05;;;3.60;;
71562;SDS011;59391;52.504;13.438;2023-09-30T09:34:01;10.97;;;3.17;;
71562;SDS011;59391;52.504;13.438;2023-09-30T09:36:44;13.13;;;3.10;;
71562;SDS011;59391;52.504;13.438;2023-09-30T09:39:11;13.43;;;3.38;;
71562;SDS011;59391;52.504;13.438;2023-09-30T09:41:54;9.82;;;3.20;;
71562;SDS011;59391;52.504;13.438;2023-09-30T09:44:22;8.85;;;2.70;;
71562;SDS011;59391;52.504;13.438;2023-09-30T09:46:52;8.67;;;2.87;;
71562;SDS011;59391;52.504;13.438;2023-09-30T09:49:18;11.15;;;3.22;;
71562;SDS011;59391;52.504;13.438;2023-09-30T09:51:45;7.32;;;2.70;;
71562;SDS011;59391;52.504;13.438;2023-09-30T09:54:13;9.02;;;2.90;;
71562;SDS011;59391;52.504;13.438;2023-09-30T09:56:41;8.40;;;2.80;;
71562;SDS011;59391;52.504;13.438;2023-09-30T09:59:13;8.70;;;2.67;;
71562;SDS011;59391;52.504;13.438;2023-09-30T10:01:39;10.25;;;3.15;;
71562;SDS011;59391;52.504;13.438;2023-09-30T10:04:07;7.47;;;2.53;;
71562;SDS011;59391;52.504;13.438;2023-09-30T10:06:35;7.30;;;2.53;;
71562;SDS011;59391;52.504;13.438;2023-09-30T10:09:03;10.43;;;2.70;;
71562;SDS011;59391;52.504;13.438;2023-09-30T10:11:34;9.77;;;2.90;;
71562;SDS011;59391;52.504;13.438;2023-09-30T10:14:00;7.93;;;2.67;;
71562;SDS011;59391;52.504;13.438;2023-09-30T10:19:09;11.25;;;3.22;;
71562;SDS011;59391;52.504;13.438;2023-09-30T10:21:37;10.70;;;2.47;;
71562;SDS011;59391;52.504;13.438;2023-09-30T10:27:27;8.65;;;2.70;;
71562;SDS011;59391;52.504;13.438;2023-09-30T10:35:15;6.75;;;2.15;;
71562;SDS011;59391;52.504;13.438;2023-09-30T10:40:46;7.85;;;2.50;;
71562;SDS011;59391;52.504;13.438;2023-09-30T10:43:28;9.05;;;2.60;;
71562;SDS011;59391;52.504;13.438;2023-09-30T10:45:58;7.90;;;2.17;;
71562;SDS011;59391;52.504;13.438;2023-09-30T10:50:54;8.95;;;2.70;;
71562;SDS011;59391;52.504;13.438;2023-09-30T10:53:23;9.77;;;2.58;;
71562;SDS011;59391;52.504;13.438;2023-09-30T10:55:55;5.97;;;2.40;;
71562;SDS011;59391;52.504;13.438;2023-09-30T10:58:39;8.73;;;2.65;;
71562;SDS011;59391;52.504;13.438;2023-09-30T11:01:06;8.73;;;2.55;;
71562;SDS011;59391;52.504;13.438;2023-09-30T11:03:32;6.88;;;2.42;;
71562;SDS011;59391;52.504;13.438;2023-09-30T11:05:58;8.17;;;2.40;;
71562;SDS011;59391;52.504;13.438;2023-09-30T11:08:24;8.45;;;2.35;;
71562;SDS011;59391;52.504;13.438;2023-09-30T11:10:57;8.23;;;2.10;;
71562;SDS011;59391;52.504;13.438;2023-09-30T11:13:22;8.57;;;2.23;;
71562;SDS011;59391;52.504;13.438;2023-09-30T11:16:00;10.40;;;2.35;;
71562;SDS011;59391;52.504;13.438;2023-09-30T11:18:29;6.97;;;2.17;;
71562;SDS011;59391;52.504;13.438;2023-09-30T11:21:06;8.65;;;2.40;;
71562;SDS011;59391;52.504;13.438;2023-09-30T11:23:36;6.50;;;2.23;;
71562;SDS011;59391;52.504;13.438;2023-09-30T11:26:03;7.00;;;2.20;;
71562;SDS011;59391;52.504;13.438;2023-09-30T11:28:36;6.57;;;2.17;;
71562;SDS011;59391;52.504;13.438;2023-09-30T11:31:06;7.45;;;2.15;;
71562;SDS011;59391;52.504;13.438;2023-09-30T11:33:47;7.32;;;2.30;;
71562;SDS011;59391;52.504;13.438;2023-09-30T11:36:18;7.60;;;1.97;;
71562;SDS011;59391;52.504;13.438;2023-09-30T11:38:46;8.00;;;2.30;;
71562;SDS011;59391;52.504;13.438;2023-09-30T11:41:13;8.32;;;2.45;;
71562;SDS011;59391;52.504;13.438;2023-09-30T11:43:39;8.47;;;2.50;;
71562;SDS011;59391;52.504;13.438;2023-09-30T11:46:24;7.65;;;2.60;;
71562;SDS011;59391;52.504;13.438;2023-09-30T11:48:58;6.78;;;2.13;;
71562;SDS011;59391;52.504;13.438;2023-09-30T11:51:42;8.38;;;2.20;;
71562;SDS011;59391;52.504;13.438;2023-09-30T11:54:13;7.53;;;2.05;;
71562;SDS011;59391;52.504;13.438;2023-09-30T11:56:39;8.63;;;2.00;;
71562;SDS011;59391;52.504;13.438;2023-09-30T11:59:05;8.52;;;2.10;;
71562;SDS011;59391;52.504;13.438;2023-09-30T12:01:31;7.95;;;1.95;;
71562;SDS011;59391;52.504;13.438;2023-09-30T12:03:57;7.27;;;2.20;;
71562;SDS011;59391;52.504;13.438;2023-09-30T12:06:26;5.97;;;2.20;;
71562;SDS011;59391;52.504;13.438;2023-09-30T12:08:51;6.57;;;2.03;;
71562;SDS011;59391;52.504;13.438;2023-09-30T12:11:18;6.57;;;2.00;;
71562;SDS011;59391;52.504;13.438;2023-09-30T12:13:44;7.95;;;2.30;;
71562;SDS011;59391;52.504;13.438;2023-09-30T12:16:10;7.00;;;2.38;;
71562;SDS011;59391;52.504;13.438;2023-09-30T12:18:39;8.45;;;1.88;;
71562;SDS011;59391;52.504;13.438;2023-09-30T12:21:06;6.00;;;2.17;;
71562;SDS011;59391;52.504;13.438;2023-09-30T12:23:34;9.35;;;2.50;;
71562;SDS011;59391;52.504;13.438;2023-09-30T12:26:00;7.05;;;2.13;;
71562;SDS011;59391;52.504;13.438;2023-09-30T12:28:29;7.40;;;2.00;;
71562;SDS011;59391;52.504;13.438;2023-09-30T12:30:59;6.90;;;2.47;;
71562;SDS011;59391;52.504;13.438;2023-09-30T12:33:30;6.97;;;2.30;;
71562;SDS011;59391;52.504;13.438;2023-09-30T12:35:57;8.77;;;2.25;;
71562;SDS011;59391;52.504;13.438;2023-09-30T12:38:23;6.43;;;2.30;;
71562;SDS011;59391;52.504;13.438;2023-09-30T12:40:51;6.13;;;2.10;;
71562;SDS011;59391;52.504;13.438;2023-09-30T12:43:18;6.70;;;2.17;;
71562;SDS011;59391;52.504;13.438;2023-09-30T12:45:44;8.00;;;2.27;;
71562;SDS011;59391;52.504;13.438;2023-09-30T12:48:12;6.80;;;2.03;;
71562;SDS011;59391;52.504;13.438;2023-09-30T12:50:39;7.63;;;2.10;;
71562;SDS011;59391;52.504;13.438;2023-09-30T12:53:05;9.23;;;3.42;;
71562;SDS011;59391;52.504;13.438;2023-09-30T12:55:31;5.60;;;1.98;;
71562;SDS011;59391;52.504;13.438;2023-09-30T12:57:58;6.33;;;2.20;;
71562;SDS011;59391;52.504;13.438;2023-09-30T13:00:24;6.63;;;2.05;;
71562;SDS011;59391;52.504;13.438;2023-09-30T13:02:51;6.68;;;2.20;;
71562;SDS011;59391;52.504;13.438;2023-09-30T13:05:17;7.95;;;2.45;;
71562;SDS011;59391;52.504;13.438;2023-09-30T13:07:44;9.25;;;2.00;;
71562;SDS011;59391;52.504;13.438;2023-09-30T13:10:11;8.37;;;2.37;;
71562;SDS011;59391;52.504;13.438;2023-09-30T13:12:38;8.68;;;2.03;;
71562;SDS011;59391;52.504;13.438;2023-09-30T13:15:04;6.47;;;2.30;;
71562;SDS011;59391;52.504;13.438;2023-09-30T13:17:30;6.00;;;2.15;;
71562;SDS011;59391;52.504;13.438;2023-09-30T13:19:56;5.87;;;1.90;;
71562;SDS011;59391;52.504;13.438;2023-09-30T13:22:23;6.80;;;2.20;;
71562;SDS011;59391;52.504;13.438;2023-09-30T13:24:48;7.60;;;2.20;;
71562;SDS011;59391;52.504;13.438;2023-09-30T13:27:14;6.07;;;2.10;;
71562;SDS011;59391;52.504;13.438;2023-09-30T13:29:41;6.78;;;2.50;;
71562;SDS011;59391;52.504;13.438;2023-09-30T13:32:06;6.03;;;2.30;;
71562;SDS011;59391;52.504;13.438;2023-09-30T13:34:35;5.60;;;2.10;;
71562;SDS011;59391;52.504;13.438;2023-09-30T13:37:01;8.10;;;2.42;;
71562;SDS011;59391;52.504;13.438;2023-09-30T13:39:26;6.37;;;2.07;;
71562;SDS011;59391;52.504;13.438;2023-09-30T13:41:52;5.85;;;1.92;;
71562;SDS011;59391;52.504;13.438;2023-09-30T13:44:18;6.40;;;1.88;;
71562;SDS011;59391;52.504;13.438;2023-09-30T13:46:44;8.37;;;2.30;;
71562;SDS011;59391;52.504;13.438;2023-09-30T13:49:10;6.38;;;2.30;;
71562;SDS011;59391;52.504;13.438;2023-09-30T13:51:37;6.88;;;2.42;;
71562;SDS011;59391;52.504;13.438;2023-09-30T13:54:03;6.63;;;1.97;;
71562;SDS011;59391;52.504;13.438;2023-09-30T13:56:32;6.38;;;2.30;;
71562;SDS011;59391;52.504;13.438;2023-09-30T13:58:58;6.38;;;2.22;;
71562;SDS011;59391;52.504;13.438;2023-09-30T14:01:24;7.47;;;2.17;;
71562;SDS011;59391;52.504;13.438;2023-09-30T14:03:50;8.77;;;2.20;;
71562;SDS011;59391;52.504;13.438;2023-09-30T14:06:20;7.85;;;2.20;;
71562;SDS011;59391;52.504;13.438;2023-09-30T14:08:46;6.63;;;1.90;;
71562;SDS011;59391;52.504;13.438;2023-09-30T14:11:12;7.23;;;2.17;;
71562;SDS011;59391;52.504;13.438;2023-09-30T14:13:38;7.40;;;2.10;;
71562;SDS011;59391;52.504;13.438;2023-09-30T14:16:04;6.43;;;2.00;;
71562;SDS011;59391;52.504;13.438;2023-09-30T14:18:31;6.40;;;2.00;;
71562;SDS011;59391;52.504;13.438;2023-09-30T14:20:58;7.28;;;2.20;;
71562;SDS011;59391;52.504;13.438;2023-09-30T14:23:24;6.70;;;2.58;;
71562;SDS011;59391;52.504;13.438;2023-09-30T14:25:50;7.17;;;2.10;;
71562;SDS011;59391;52.504;13.438;2023-09-30T14:28:20;5.65;;;2.13;;
71562;SDS011;59391;52.504;13.438;2023-09-30T14:30:49;4.78;;;1.60;;
71562;SDS011;59391;52.504;13.438;2023-09-30T14:33:18;7.75;;;2.10;;
71562;SDS011;59391;52.504;13.438;2023-09-30T14:35:45;5.47;;;1.87;;
71562;SDS011;59391;52.504;13.438;2023-09-30T14:38:10;5.28;;;1.65;;
71562;SDS011;59391;52.504;13.438;2023-09-30T14:40:37;5.95;;;2.38;;
71562;SDS011;59391;52.504;13.438;2023-09-30T14:43:04;5.23;;;1.90;;
71562;SDS011;59391;52.504;13.438;2023-09-30T14:45:31;6.65;;;1.90;;
71562;SDS011;59391;52.504;13.438;2023-09-30T14:47:57;5.43;;;1.77;;